createdAt,value
2023-05-10T00:00:39.113Z,6.00
2023-05-10T00:05:44.078Z,7.75
2023-05-10T00:10:48.878Z,8.00
2023-05-10T00:15:53.779Z,7.75
2023-05-10T00:20:58.606Z,8.50
2023-05-10T00:26:03.432Z,10.50
2023-05-10T00:31:08.224Z,8.00
2023-05-10T00:36:13.179Z,7.00
2023-05-10T00:41:19.160Z,8.00
2023-05-10T00:46:24.868Z,7.00
2023-05-10T00:51:30.083Z,6.00
2023-05-10T00:56:35.132Z,8.00
2023-05-10T01:01:41.336Z,8.00
2023-05-10T01:06:46.597Z,7.75
2023-05-10T01:11:52.419Z,8.75
2023-05-10T01:16:57.756Z,8.50
2023-05-10T01:22:08.106Z,5.75
2023-05-10T01:27:12.772Z,8.50
2023-05-10T01:32:26.686Z,9.00
2023-05-10T01:37:35.470Z,8.00
2023-05-10T01:42:45.068Z,7.00
2023-05-10T01:47:53.674Z,7.75
2023-05-10T01:53:00.302Z,10.50
2023-05-10T01:58:07.595Z,8.25
2023-05-10T02:03:13.746Z,9.25
2023-05-10T02:08:19.898Z,10.50
2023-05-10T02:13:26.386Z,10.75
2023-05-10T02:18:32.763Z,10.75
2023-05-10T02:23:37.953Z,11.00
2023-05-10T02:28:43.547Z,12.25
2023-05-10T02:33:48.931Z,10.00
2023-05-10T02:38:56.316Z,11.00
2023-05-10T02:44:05.236Z,12.75
2023-05-10T02:49:11.008Z,11.25
2023-05-10T02:54:18.476Z,11.75
2023-05-10T02:59:23.193Z,9.75
2023-05-10T03:04:27.608Z,13.25
2023-05-10T03:09:35.002Z,11.75
2023-05-10T03:14:48.631Z,13.00
2023-05-10T03:19:57.908Z,13.75
2023-05-10T03:25:08.167Z,13.25
2023-05-10T03:30:14.009Z,13.75
2023-05-10T03:35:19.676Z,13.00
2023-05-10T03:40:24.862Z,14.00
2023-05-10T03:45:29.807Z,14.50
2023-05-10T03:50:34.515Z,15.25
2023-05-10T03:55:39.102Z,17.00
2023-05-10T04:00:46.147Z,13.50
2023-05-10T04:05:51.724Z,15.00
2023-05-10T04:10:56.079Z,16.00
2023-05-10T04:16:00.527Z,12.25
2023-05-10T04:21:05.051Z,12.25
2023-05-10T04:26:10.280Z,12.50
2023-05-10T04:31:14.764Z,12.00
2023-05-10T04:36:19.451Z,11.00
2023-05-10T04:41:23.865Z,12.00
2023-05-10T04:46:28.248Z,10.50
2023-05-10T04:51:33.710Z,11.75
2023-05-10T04:56:38.177Z,10.75
2023-05-10T05:01:42.811Z,8.75
2023-05-10T05:06:47.474Z,10.00
2023-05-10T05:11:51.872Z,10.25
2023-05-10T05:16:56.594Z,9.00
2023-05-10T05:22:00.999Z,11.25
2023-05-10T05:27:05.561Z,9.75
2023-05-10T05:32:10.747Z,8.75
2023-05-10T05:37:19.158Z,10.75
2023-05-10T05:42:23.558Z,11.00
2023-05-10T05:47:27.937Z,10.00
2023-05-10T05:52:32.971Z,12.25
2023-05-10T05:57:37.285Z,10.00
2023-05-10T06:02:43.257Z,12.25
2023-05-10T06:07:48.352Z,11.00
2023-05-10T06:12:53.073Z,11.75
2023-05-10T06:17:57.476Z,11.00
2023-05-10T06:23:02.042Z,10.25
2023-05-10T06:28:06.188Z,12.00
2023-05-10T06:33:11.722Z,10.50
2023-05-10T06:38:16.289Z,9.75
2023-05-10T06:43:20.717Z,8.25
2023-05-10T06:48:24.969Z,9.75
2023-05-10T06:53:29.807Z,9.00
2023-05-10T06:58:35.093Z,9.25
2023-05-10T07:03:39.245Z,11.50
2023-05-10T07:08:43.668Z,10.25
2023-05-10T07:13:48.914Z,8.00
2023-05-10T07:18:53.379Z,10.75
2023-05-10T07:23:57.669Z,9.75
2023-05-10T07:29:02.186Z,10.25
2023-05-10T07:34:06.975Z,11.50
2023-05-10T07:39:16.171Z,10.00
2023-05-10T07:44:23.297Z,11.50
2023-05-10T07:49:28.320Z,12.50
2023-05-10T07:54:32.782Z,12.25
2023-05-10T07:59:37.370Z,17.00
2023-05-10T08:04:42.032Z,20.75
2023-05-10T08:09:46.503Z,17.75
2023-05-10T08:14:51.028Z,16.00
2023-05-10T08:19:55.487Z,16.25
2023-05-10T08:24:59.578Z,17.00
2023-05-10T08:30:03.928Z,18.25
2023-05-10T08:35:08.624Z,15.00
2023-05-10T08:40:14.429Z,16.50
2023-05-10T08:45:20.282Z,15.75
2023-05-10T08:50:25.027Z,17.00
2023-05-10T08:55:30.368Z,13.00
2023-05-10T09:00:36.535Z,15.25
2023-05-10T09:05:41.071Z,14.50
2023-05-10T09:10:46.187Z,15.00
2023-05-10T09:15:50.987Z,15.00
2023-05-10T09:20:55.561Z,17.00
2023-05-10T09:26:09.204Z,17.00
2023-05-10T09:31:13.925Z,16.50
2023-05-10T09:36:18.737Z,15.00
2023-05-10T09:41:26.215Z,16.75
2023-05-10T09:46:30.440Z,16.00
2023-05-10T09:51:36.162Z,15.75
2023-05-10T09:56:42.680Z,16.75
2023-05-10T10:01:53.082Z,11.00
2023-05-10T10:07:03.060Z,15.00
2023-05-10T10:12:08.119Z,16.00
2023-05-10T10:17:13.300Z,13.00
2023-05-10T10:22:17.980Z,13.75
2023-05-10T10:27:48.687Z,16.00
2023-05-10T10:33:24.281Z,18.25
2023-05-10T10:38:40.251Z,18.00
2023-05-10T10:43:45.247Z,17.00
2023-05-10T10:48:51.295Z,16.50
2023-05-10T10:53:56.871Z,17.00
2023-05-10T10:59:02.324Z,16.75
2023-05-10T11:04:07.146Z,18.25
2023-05-10T11:09:13.573Z,15.50
2023-05-10T11:14:22.471Z,18.50
2023-05-10T11:19:30.158Z,15.25
2023-05-10T11:24:35.840Z,15.00
2023-05-10T11:29:40.963Z,15.75
2023-05-10T11:34:52.733Z,15.75
2023-05-10T11:39:57.618Z,16.00
2023-05-10T11:45:03.946Z,16.25
2023-05-10T11:50:08.981Z,15.00
2023-05-10T11:55:15.086Z,15.00
2023-05-10T12:00:20.040Z,18.50
2023-05-10T12:05:25.139Z,15.00
2023-05-10T12:10:30.206Z,14.50
2023-05-10T12:15:35.132Z,16.00
2023-05-10T12:20:41.021Z,14.50
2023-05-10T12:25:45.720Z,16.25
2023-05-10T12:30:50.306Z,14.50
2023-05-10T12:35:56.145Z,17.00
2023-05-10T12:41:04.887Z,15.25
2023-05-10T12:46:14.640Z,17.50
2023-05-10T12:51:21.735Z,15.50
2023-05-10T12:56:27.328Z,16.50
2023-05-10T13:01:32.455Z,17.50
2023-05-10T13:06:37.584Z,14.25
2023-05-10T13:11:42.349Z,14.75
2023-05-10T13:16:47.051Z,17.00
2023-05-10T13:21:51.903Z,14.00
2023-05-10T13:26:56.889Z,15.00
2023-05-10T13:32:05.845Z,16.75
2023-05-10T13:37:10.807Z,15.00
2023-05-10T13:42:16.512Z,15.50
2023-05-10T13:47:21.859Z,15.75
2023-05-10T13:52:26.835Z,17.75
2023-05-10T13:57:32.544Z,17.50
2023-05-10T14:02:37.518Z,14.75
2023-05-10T14:07:42.577Z,16.00
2023-05-10T14:12:47.641Z,14.75
2023-05-10T14:17:52.373Z,14.75
2023-05-10T14:22:57.137Z,16.75
2023-05-10T14:28:02.254Z,17.50
2023-05-10T14:33:07.143Z,17.75
2023-05-10T14:38:16.216Z,15.75
2023-05-10T14:43:22.728Z,15.50
2023-05-10T14:48:27.921Z,17.25
2023-05-10T14:53:33.189Z,16.00
2023-05-10T14:58:37.999Z,14.50
2023-05-10T15:03:43.351Z,14.00
2023-05-10T15:08:48.465Z,15.25
2023-05-10T15:13:53.508Z,14.00
2023-05-10T15:18:58.570Z,17.00
2023-05-10T15:24:03.972Z,15.00
2023-05-10T15:29:08.979Z,15.25
2023-05-10T15:34:14.035Z,16.75
2023-05-10T15:39:18.882Z,14.75
2023-05-10T15:44:24.367Z,13.50
2023-05-10T15:49:29.615Z,17.50
2023-05-10T15:54:34.774Z,13.50
2023-05-10T15:59:39.546Z,16.50
2023-05-10T16:04:45.909Z,17.50
2023-05-10T16:09:51.101Z,14.50
2023-05-10T16:14:55.968Z,14.00
2023-05-10T16:20:01.328Z,16.00
2023-05-10T16:25:06.432Z,15.25
2023-05-10T16:30:11.409Z,14.50
2023-05-10T16:35:16.559Z,14.00
2023-05-10T16:40:21.611Z,13.00
2023-05-10T16:45:27.128Z,17.50
2023-05-10T16:50:32.012Z,16.00
2023-05-10T16:55:36.673Z,14.50
2023-05-10T17:00:41.408Z,17.25
2023-05-10T17:05:46.245Z,14.75
2023-05-10T17:10:50.982Z,14.00
2023-05-10T17:15:55.791Z,16.50
2023-05-10T17:21:01.153Z,16.50
2023-05-10T17:26:07.054Z,15.75
2023-05-10T17:31:11.995Z,15.00
2023-05-10T17:36:16.673Z,16.00
2023-05-10T17:41:21.439Z,17.75
2023-05-10T17:46:26.177Z,14.75
2023-05-10T17:51:31.619Z,16.75
2023-05-10T17:56:36.341Z,16.00
2023-05-10T18:01:41.201Z,18.00
2023-05-10T18:06:45.957Z,18.75
2023-05-10T18:11:50.903Z,18.50
2023-05-10T18:16:55.876Z,17.75
2023-05-10T18:22:00.421Z,16.75
2023-05-10T18:27:06.914Z,16.00
2023-05-10T18:32:12.145Z,17.50
2023-05-10T18:37:16.976Z,14.00
2023-05-10T18:42:22.078Z,18.25
2023-05-10T18:47:28.011Z,19.00
2023-05-10T18:52:33.115Z,20.00
2023-05-10T18:57:42.941Z,15.75
2023-05-10T19:02:48.303Z,14.50
2023-05-10T19:07:53.200Z,19.00
2023-05-10T19:12:58.717Z,19.00
2023-05-10T19:18:03.456Z,18.75
2023-05-10T19:23:10.351Z,18.00
2023-05-10T19:28:15.290Z,17.25
2023-05-10T19:33:20.200Z,17.25
2023-05-10T19:38:25.689Z,18.75
2023-05-10T19:43:33.389Z,18.50
2023-05-10T19:48:39.991Z,18.00
2023-05-10T19:53:46.303Z,16.00
2023-05-10T19:58:50.978Z,15.75
2023-05-10T20:03:55.806Z,17.50
2023-05-10T20:09:00.541Z,18.50
2023-05-10T20:14:05.840Z,17.00
2023-05-10T20:19:10.814Z,20.00
2023-05-10T20:24:15.597Z,18.50
2023-05-10T20:29:20.393Z,18.75
2023-05-10T20:34:25.343Z,19.00
2023-05-10T20:39:31.161Z,18.50
2023-05-10T20:44:36.085Z,19.25
2023-05-10T20:49:41.661Z,18.50
2023-05-10T20:54:46.692Z,16.75
2023-05-10T20:59:53.427Z,20.00
2023-05-10T21:04:58.445Z,19.00
2023-05-10T21:10:03.300Z,16.00
2023-05-10T21:15:08.758Z,19.00
2023-05-10T21:20:14.078Z,19.00
2023-05-10T21:25:19.490Z,20.00
2023-05-10T21:30:24.621Z,19.00
2023-05-10T21:35:29.578Z,19.75
2023-05-10T21:40:35.240Z,21.00
2023-05-10T21:45:40.514Z,21.00
2023-05-10T21:50:45.566Z,20.75
2023-05-10T21:55:50.590Z,20.75
2023-05-10T22:00:55.404Z,20.50
2023-05-10T22:06:00.241Z,23.00
2023-05-10T22:11:04.936Z,21.00
2023-05-10T22:16:09.653Z,21.00
2023-05-10T22:21:14.538Z,22.00
2023-05-10T22:26:19.359Z,23.75
2023-05-10T22:31:24.477Z,23.00
2023-05-10T22:36:30.480Z,22.00
2023-05-10T22:41:35.831Z,22.75
2023-05-10T22:46:40.457Z,22.50
2023-05-10T22:51:45.232Z,23.75
2023-05-10T22:56:50.291Z,24.25
2023-05-10T23:01:55.857Z,23.50
2023-05-10T23:07:01.909Z,22.00
2023-05-10T23:12:07.118Z,23.00
2023-05-10T23:17:12.397Z,23.25
2023-05-10T23:22:17.204Z,25.00
2023-05-10T23:27:22.044Z,26.00
2023-05-10T23:32:26.936Z,28.00
2023-05-10T23:37:31.884Z,25.00
2023-05-10T23:42:36.746Z,26.00
2023-05-10T23:47:41.457Z,26.00
2023-05-10T23:52:46.231Z,26.25
2023-05-10T23:57:51.463Z,25.75
